Time,TemperatureF,DewpointF,PressureIn,WindDirection,WindDirectionDegrees,WindSpeedMPH,WindSpeedGustMPH,Humidity,HourlyPrecipIn,Conditions,Clouds,dailyrainin,SoftwareType,DateUTC
2013-05-12 00:00:00,64.1,62.0,29.69,WNW,285,3.0,4.0,94,0.00,,,0.64,weatherlink.com 1.10,2013-05-12 04:00:00,
2013-05-12 00:15:00,64.3,63.0,29.69,WNW,291,3.0,8.0,94,0.00,,,0.00,weatherlink.com 1.10,2013-05-12 04:15:00,
2013-05-12 00:30:00,64.2,62.0,29.69,West,262,2.0,10.0,93,0.00,,,0.00,weatherlink.com 1.10,2013-05-12 04:30:00,
2013-05-12 00:45:00,64.5,62.0,29.69,WSW,255,2.0,5.0,90,0.00,,,0.00,weatherlink.com 1.10,2013-05-12 04:45:00,
2013-05-12 01:00:00,64.9,60.0,29.68,North,9,0.0,7.0,85,0.00,,,0.00,weatherlink.com 1.10,2013-05-12 05:00:00,
2013-05-12 01:15:00,65.3,59.0,29.67,West,269,3.0,9.0,79,0.00,,,0.00,weatherlink.com 1.10,2013-05-12 05:15:00,
2013-05-12 01:30:00,65.2,58.0,29.67,West,270,3.0,8.0,77,0.00,,,0.00,weatherlink.com 1.10,2013-05-12 05:30:00,
2013-05-12 01:45:00,64.9,58.0,29.67,WNW,297,3.0,8.0,77,0.00,,,0.00,weatherlink.com 1.10,2013-05-12 05:45:00,
2013-05-12 02:00:00,64.5,57.0,29.67,WNW,293,1.0,7.0,77,0.00,,,0.00,weatherlink.com 1.10,2013-05-12 06:00:00,
2013-05-12 02:15:00,64.5,56.0,29.66,WNW,293,3.0,11.0,75,0.00,,,0.00,weatherlink.com 1.10,2013-05-12 06:15:00,
2013-05-12 02:30:00,64.2,57.0,29.64,NW,311,4.0,10.0,76,0.00,,,0.00,weatherlink.com 1.10,2013-05-12 06:30:00,
2013-05-12 02:45:00,63.8,56.0,29.64,NW,311,4.0,10.0,77,0.00,,,0.00,weatherlink.com 1.10,2013-05-12 06:45:00,
2013-05-12 03:00:00,63.5,57.0,29.65,West,262,1.0,8.0,78,0.00,,,0.00,weatherlink.com 1.10,2013-05-12 07:00:00,
2013-05-12 03:15:00,63.3,56.0,29.67,NW,322,5.0,14.0,77,0.00,,,0.00,weatherlink.com 1.10,2013-05-12 07:15:00,
2013-05-12 03:30:00,63.2,56.0,29.68,NW,322,4.0,7.0,76,0.00,,,0.00,weatherlink.com 1.10,2013-05-12 07:30:00,
2013-05-12 03:45:00,63.0,55.0,29.67,West,266,4.0,9.0,74,0.00,,,0.00,weatherlink.com 1.10,2013-05-12 07:45:00,
2013-05-12 04:00:00,63.0,55.0,29.67,WNW,295,0.0,6.0,74,0.00,,,0.00,weatherlink.com 1.10,2013-05-12 08:00:00,
2013-05-12 04:15:00,62.8,54.0,29.66,NW,311,1.0,6.0,73,0.00,,,0.00,weatherlink.com 1.10,2013-05-12 08:15:00,
2013-05-12 04:30:00,62.6,53.0,29.68,West,281,0.0,7.0,72,0.00,,,0.00,weatherlink.com 1.10,2013-05-12 08:30:00,
2013-05-12 04:45:00,62.6,53.0,29.68,WSW,246,3.0,4.0,71,0.00,,,0.00,weatherlink.com 1.10,2013-05-12 08:45:00,
2013-05-12 05:00:00,62.4,52.0,29.67,WNW,288,1.0,10.0,68,0.00,,,0.00,weatherlink.com 1.10,2013-05-12 09:00:00,
2013-05-12 05:15:00,62.4,52.0,29.68,WNW,287,2.0,6.0,68,0.00,,,0.00,weatherlink.com 1.10,2013-05-12 09:15:00,
2013-05-12 05:30:00,62.1,51.0,29.68,NE,47,1.0,9.0,66,0.00,,,0.00,weatherlink.com 1.10,2013-05-12 09:30:00,
2013-05-12 05:46:00,61.8,51.0,29.69,NW,314,4.0,9.0,67,0.00,,,0.00,weatherlink.com 1.10,2013-05-12 09:46:00,
2013-05-12 06:01:00,61.2,51.0,29.69,NW,304,2.0,6.0,70,0.00,,,0.00,weatherlink.com 1.10,2013-05-12 10:01:00,
2013-05-12 06:16:00,61.1,50.0,29.69,NW,325,4.0,10.0,68,0.00,,,0.00,weatherlink.com 1.10,2013-05-12 10:16:00,
2013-05-12 06:31:00,60.9,51.0,29.70,NW,304,2.0,6.0,70,0.00,,,0.00,weatherlink.com 1.10,2013-05-12 10:31:00,
2013-05-12 06:46:00,60.3,51.0,29.69,West,270,3.0,5.0,71,0.02,,,0.02,weatherlink.com 1.10,2013-05-12 10:46:00,
2013-05-12 07:01:00,59.6,50.0,29.69,WNW,290,2.0,7.0,71,0.02,,,0.02,weatherlink.com 1.10,2013-05-12 11:01:00,
2013-05-12 07:16:00,59.6,48.0,29.70,WNW,287,2.0,12.0,65,0.02,,,0.02,weatherlink.com 1.10,2013-05-12 11:16:00,
2013-05-12 07:31:00,59.0,49.0,29.69,West,271,1.0,10.0,69,0.02,,,0.02,weatherlink.com 1.10,2013-05-12 11:31:00,
2013-05-12 07:46:00,59.0,48.0,29.70,NW,316,0.0,9.0,68,0.00,,,0.02,weatherlink.com 1.10,2013-05-12 11:46:00,
2013-05-12 08:01:00,59.1,48.0,29.70,WNW,285,0.0,9.0,68,0.00,,,0.02,weatherlink.com 1.10,2013-05-12 12:01:00,
2013-05-12 08:16:00,59.1,48.0,29.69,WNW,291,3.0,13.0,67,0.00,,,0.02,weatherlink.com 1.10,2013-05-12 12:16:00,
2013-05-12 08:31:00,59.3,47.0,29.69,NNW,331,2.0,10.0,65,0.00,,,0.02,weatherlink.com 1.10,2013-05-12 12:31:00,
2013-05-12 08:46:00,59.8,47.0,29.70,West,276,3.0,10.0,63,0.00,,,0.02,weatherlink.com 1.10,2013-05-12 12:46:00,
2013-05-12 09:01:00,60.8,47.0,29.69,WNW,296,2.0,8.0,60,0.00,,,0.02,weatherlink.com 1.10,2013-05-12 13:01:00,
2013-05-12 09:16:00,61.8,47.0,29.69,West,277,5.0,8.0,58,0.00,,,0.02,weatherlink.com 1.10,2013-05-12 13:16:00,
2013-05-12 09:31:00,62.1,46.0,29.69,NW,304,7.0,8.0,56,0.00,,,0.02,weatherlink.com 1.10,2013-05-12 13:31:00,
2013-05-12 09:46:00,62.9,45.0,29.69,NW,320,6.0,9.0,53,0.00,,,0.02,weatherlink.com 1.10,2013-05-12 13:46:00,
2013-05-12 10:01:00,63.7,45.0,29.69,NW,322,10.0,10.0,51,0.00,,,0.02,weatherlink.com 1.10,2013-05-12 14:01:00,
2013-05-12 10:16:00,64.0,45.0,29.68,West,273,6.0,12.0,50,0.00,,,0.02,weatherlink.com 1.10,2013-05-12 14:16:00,
2013-05-12 10:31:00,64.2,44.0,29.68,North,357,5.0,10.0,49,0.00,,,0.02,weatherlink.com 1.10,2013-05-12 14:31:00,
2013-05-12 10:46:00,65.0,44.0,29.68,NNW,327,8.0,13.0,47,0.00,,,0.02,weatherlink.com 1.10,2013-05-12 14:46:00,
2013-05-12 11:01:00,65.4,45.0,29.67,West,278,9.0,13.0,48,0.00,,,0.02,weatherlink.com 1.10,2013-05-12 15:01:00,
2013-05-12 11:16:00,66.4,46.0,29.68,West,280,6.0,12.0,48,0.00,,,0.02,weatherlink.com 1.10,2013-05-12 15:16:00,
2013-05-12 11:31:00,67.4,46.0,29.68,WNW,284,3.0,11.0,46,0.00,,,0.02,weatherlink.com 1.10,2013-05-12 15:31:00,
2013-05-12 11:46:00,67.5,46.0,29.68,South,184,7.0,11.0,47,0.00,,,0.02,weatherlink.com 1.10,2013-05-12 15:46:00,
2013-05-12 12:01:00,68.6,46.0,29.68,WNW,293,6.0,13.0,45,0.00,,,0.02,weatherlink.com 1.10,2013-05-12 16:01:00,
2013-05-12 12:16:00,68.8,46.0,29.67,WNW,297,4.0,11.0,44,0.00,,,0.02,weatherlink.com 1.10,2013-05-12 16:16:00,
2013-05-12 12:31:00,68.5,46.0,29.68,WSW,240,6.0,15.0,45,0.00,,,0.02,weatherlink.com 1.10,2013-05-12 16:31:00,
2013-05-12 12:46:00,68.6,45.0,29.68,WSW,245,6.0,12.0,43,0.00,,,0.02,weatherlink.com 1.10,2013-05-12 16:46:00,
2013-05-12 13:01:00,68.3,45.0,29.67,West,262,4.0,16.0,43,0.00,,,0.02,weatherlink.com 1.10,2013-05-12 17:01:00,
2013-05-12 13:16:00,68.7,43.0,29.68,NW,323,6.0,16.0,40,0.00,,,0.02,weatherlink.com 1.10,2013-05-12 17:16:00,
2013-05-12 13:31:00,68.1,42.0,29.68,WNW,300,4.0,15.0,39,0.00,,,0.02,weatherlink.com 1.10,2013-05-12 17:31:00,
2013-05-12 13:46:00,68.4,42.0,29.68,West,279,3.0,12.0,39,0.00,,,0.02,weatherlink.com 1.10,2013-05-12 17:46:00,
2013-05-12 14:01:00,67.9,41.0,29.67,WNW,287,7.0,16.0,38,0.00,,,0.02,weatherlink.com 1.10,2013-05-12 18:01:00,
2013-05-12 14:16:00,68.0,39.0,29.68,NW,308,5.0,15.0,35,0.00,,,0.02,weatherlink.com 1.10,2013-05-12 18:16:00,
2013-05-12 14:31:00,67.0,37.0,29.68,WSW,255,11.0,17.0,33,0.00,,,0.02,weatherlink.com 1.10,2013-05-12 18:31:00,
2013-05-12 14:46:00,67.1,33.0,29.68,WNW,298,4.0,16.0,28,0.00,,,0.02,weatherlink.com 1.10,2013-05-12 18:46:00,
2013-05-12 15:01:00,67.2,35.0,29.68,WSW,250,8.0,17.0,30,0.00,,,0.02,weatherlink.com 1.10,2013-05-12 19:01:00,
2013-05-12 15:16:00,67.5,34.0,29.68,SSW,208,2.0,15.0,29,0.00,,,0.02,weatherlink.com 1.10,2013-05-12 19:16:00,
2013-05-12 15:31:00,67.5,31.0,29.68,WSW,255,3.0,12.0,26,0.00,,,0.02,weatherlink.com 1.10,2013-05-12 19:31:00,
2013-05-12 15:46:00,67.2,31.0,29.68,NW,322,11.0,14.0,26,0.00,,,0.02,weatherlink.com 1.10,2013-05-12 19:46:00,
2013-05-12 16:01:00,67.0,31.0,29.68,West,281,3.0,15.0,26,0.00,,,0.02,weatherlink.com 1.10,2013-05-12 20:01:00,
2013-05-12 16:16:00,66.9,30.0,29.69,West,276,7.0,19.0,25,0.00,,,0.02,weatherlink.com 1.10,2013-05-12 20:16:00,
2013-05-12 16:32:00,66.5,28.0,29.69,WNW,295,5.0,19.0,24,0.00,,,0.02,weatherlink.com 1.10,2013-05-12 20:32:00,
2013-05-12 16:47:00,66.3,31.0,29.70,NNW,330,6.0,14.0,27,0.00,,,0.02,weatherlink.com 1.10,2013-05-12 20:47:00,
2013-05-12 17:02:00,66.0,31.0,29.70,WNW,285,8.0,14.0,27,0.00,,,0.02,weatherlink.com 1.10,2013-05-12 21:02:00,
2013-05-12 17:17:00,65.6,30.0,29.71,West,280,6.0,12.0,26,0.00,,,0.02,weatherlink.com 1.10,2013-05-12 21:17:00,
2013-05-12 17:32:00,65.2,29.0,29.73,WSW,255,4.0,17.0,26,0.00,,,0.02,weatherlink.com 1.10,2013-05-12 21:32:00,
2013-05-12 17:47:00,64.5,29.0,29.73,WNW,302,18.0,20.0,26,0.00,,,0.02,weatherlink.com 1.10,2013-05-12 21:47:00,
2013-05-12 18:02:00,64.0,28.0,29.74,NNW,338,6.0,16.0,26,0.00,,,0.02,weatherlink.com 1.10,2013-05-12 22:02:00,
2013-05-12 18:17:00,63.9,28.0,29.75,WNW,300,9.0,14.0,26,0.00,,,0.02,weatherlink.com 1.10,2013-05-12 22:17:00,
2013-05-12 18:32:00,63.1,27.0,29.75,West,279,7.0,16.0,26,0.00,,,0.02,weatherlink.com 1.10,2013-05-12 22:32:00,
2013-05-12 18:47:00,63.0,27.0,29.76,NW,315,5.0,17.0,26,0.00,,,0.02,weatherlink.com 1.10,2013-05-12 22:47:00,
2013-05-12 19:02:00,62.0,27.0,29.77,NW,321,5.0,14.0,26,0.00,,,0.02,weatherlink.com 1.10,2013-05-12 23:02:00,
2013-05-12 19:17:00,61.4,27.0,29.78,NW,314,5.0,22.0,27,0.00,,,0.02,weatherlink.com 1.10,2013-05-12 23:17:00,
2013-05-12 19:32:00,60.7,25.0,29.79,North,4,14.0,26.0,26,0.00,,,0.02,weatherlink.com 1.10,2013-05-12 23:32:00,
2013-05-12 19:47:00,60.2,26.0,29.80,NW,315,8.0,18.0,27,0.00,,,0.02,weatherlink.com 1.10,2013-05-12 23:47:00,
2013-05-12 20:02:00,59.8,26.0,29.81,WNW,287,2.0,16.0,28,0.00,,,0.02,weatherlink.com 1.10,2013-05-13 00:02:00,
2013-05-12 20:17:00,59.4,26.0,29.82,WNW,298,6.0,18.0,28,0.00,,,0.02,weatherlink.com 1.10,2013-05-13 00:17:00,
2013-05-12 20:32:00,59.1,27.0,29.82,WNW,298,7.0,13.0,29,0.00,,,0.02,weatherlink.com 1.10,2013-05-13 00:32:00,
2013-05-12 20:47:00,58.8,27.0,29.83,WNW,288,5.0,15.0,30,0.00,,,0.02,weatherlink.com 1.10,2013-05-13 00:47:00,
2013-05-12 21:02:00,58.6,27.0,29.84,NW,309,6.0,16.0,30,0.00,,,0.02,weatherlink.com 1.10,2013-05-13 01:02:00,
2013-05-12 21:17:00,58.5,29.0,29.85,WNW,290,3.0,13.0,32,0.00,,,0.02,weatherlink.com 1.10,2013-05-13 01:17:00,
2013-05-12 21:32:00,57.8,29.0,29.86,WNW,300,3.0,17.0,34,0.00,,,0.02,weatherlink.com 1.10,2013-05-13 01:32:00,
2013-05-12 21:47:00,56.9,29.0,29.88,West,266,7.0,17.0,35,0.00,,,0.02,weatherlink.com 1.10,2013-05-13 01:47:00,
2013-05-12 22:02:00,56.5,30.0,29.89,WNW,283,4.0,16.0,36,0.00,,,0.02,weatherlink.com 1.10,2013-05-13 02:02:00,
2013-05-12 22:17:00,56.0,30.0,29.89,WNW,300,5.0,12.0,37,0.00,,,0.02,weatherlink.com 1.10,2013-05-13 02:17:00,
2013-05-12 22:32:00,55.3,29.0,29.90,WNW,291,7.0,17.0,37,0.00,,,0.02,weatherlink.com 1.10,2013-05-13 02:32:00,
2013-05-12 22:48:00,54.8,28.0,29.91,WNW,294,4.0,15.0,36,0.00,,,0.02,weatherlink.com 1.10,2013-05-13 02:48:00,
2013-05-12 23:03:00,54.5,27.0,29.91,NNE,30,4.0,17.0,35,0.00,,,0.02,weatherlink.com 1.10,2013-05-13 03:03:00,
2013-05-12 23:18:00,54.1,27.0,29.91,WNW,302,6.0,17.0,36,0.00,,,0.02,weatherlink.com 1.10,2013-05-13 03:18:00,
2013-05-12 23:33:00,54.0,27.0,29.91,WNW,289,5.0,18.0,35,0.00,,,0.02,weatherlink.com 1.10,2013-05-13 03:33:00,
2013-05-12 23:48:00,53.7,27.0,29.92,WNW,300,6.0,15.0,36,0.00,,,0.02,weatherlink.com 1.10,2013-05-13 03:48:00,